createdAt,value
2018-08-30T00:01:33.503Z,2.90
2018-08-30T00:04:02.661Z,3.00
2018-08-30T00:06:31.887Z,4.50
2018-08-30T00:09:01.122Z,4.23
2018-08-30T00:11:30.016Z,3.87
2018-08-30T00:13:58.473Z,6.37
2018-08-30T00:16:26.897Z,3.37
2018-08-30T00:18:55.367Z,5.20
2018-08-30T00:21:23.968Z,3.07
2018-08-30T00:23:52.409Z,4.03
2018-08-30T00:26:21.306Z,3.27
2018-08-30T00:28:49.714Z,2.63
2018-08-30T00:31:18.186Z,3.63
2018-08-30T00:33:46.607Z,3.23
2018-08-30T00:36:15.147Z,4.00
2018-08-30T00:38:43.523Z,2.50
2018-08-30T00:41:12.108Z,3.13
2018-08-30T00:43:40.730Z,2.67
2018-08-30T00:46:09.271Z,7.27
2018-08-30T00:48:37.720Z,5.80
2018-08-30T00:51:06.323Z,2.83
2018-08-30T00:53:34.791Z,3.70
2018-08-30T00:56:03.303Z,3.60
2018-08-30T00:58:32.260Z,4.40
2018-08-30T01:01:00.692Z,3.60
2018-08-30T01:03:29.098Z,3.27
2018-08-30T01:05:57.782Z,4.53
2018-08-30T01:08:26.291Z,3.67
2018-08-30T01:10:54.928Z,3.83
2018-08-30T01:13:23.402Z,4.33
2018-08-30T01:15:51.938Z,4.67
2018-08-30T01:18:20.404Z,5.23
2018-08-30T01:20:49.026Z,5.63
2018-08-30T01:23:17.450Z,5.17
2018-08-30T01:25:46.131Z,6.53
2018-08-30T01:28:14.561Z,5.37
2018-08-30T01:30:43.221Z,5.83
2018-08-30T01:33:11.626Z,5.47
2018-08-30T01:35:40.163Z,5.20
2018-08-30T01:38:08.634Z,5.77
2018-08-30T01:40:37.147Z,4.30
2018-08-30T01:43:05.955Z,6.10
2018-08-30T01:45:34.618Z,4.30
2018-08-30T01:48:03.190Z,5.97
2018-08-30T01:50:32.538Z,3.63
2018-08-30T01:53:01.712Z,4.70
2018-08-30T01:55:30.720Z,3.93
2018-08-30T01:57:59.504Z,4.23
2018-08-30T02:00:28.628Z,6.23
2018-08-30T02:02:57.143Z,4.50
2018-08-30T02:05:25.790Z,4.07
2018-08-30T02:07:54.225Z,4.30
2018-08-30T02:10:22.843Z,4.93
2018-08-30T02:12:51.270Z,4.23
2018-08-30T02:15:19.920Z,4.80
2018-08-30T02:17:48.268Z,5.57
2018-08-30T02:20:16.933Z,5.00
2018-08-30T02:22:45.412Z,6.27
2018-08-30T02:25:14.027Z,4.60
2018-08-30T02:27:42.565Z,5.07
2018-08-30T02:30:11.080Z,4.90
2018-08-30T02:32:39.631Z,5.67
2018-08-30T02:35:08.254Z,5.73
2018-08-30T02:37:36.742Z,5.37
2018-08-30T02:40:05.466Z,4.97
2018-08-30T02:42:33.941Z,6.17
2018-08-30T02:45:02.524Z,7.33
2018-08-30T02:47:31.641Z,6.10
2018-08-30T02:50:00.288Z,6.43
2018-08-30T02:52:28.728Z,4.73
2018-08-30T02:54:57.300Z,5.13
2018-08-30T02:57:25.914Z,5.23
2018-08-30T02:59:54.372Z,5.20
2018-08-30T03:02:22.916Z,5.17
2018-08-30T03:04:51.349Z,4.83
2018-08-30T03:07:19.855Z,4.27
2018-08-30T03:09:48.338Z,5.47
2018-08-30T03:12:16.807Z,5.37
2018-08-30T03:14:50.813Z,5.13
2018-08-30T03:17:19.422Z,5.10
2018-08-30T03:19:48.032Z,5.60
2018-08-30T03:22:16.600Z,5.57
2018-08-30T03:24:45.213Z,5.43
2018-08-30T03:27:13.722Z,5.60
2018-08-30T03:29:42.346Z,4.47
2018-08-30T03:32:10.845Z,4.97
2018-08-30T03:34:39.379Z,7.70
2018-08-30T03:37:07.817Z,6.30
2018-08-30T03:39:36.282Z,4.70
2018-08-30T03:42:04.798Z,4.80
2018-08-30T03:44:33.301Z,5.80
2018-08-30T03:48:05.020Z,4.00
2018-08-30T03:50:33.679Z,3.90
2018-08-30T03:53:03.078Z,3.57
2018-08-30T03:55:32.231Z,4.17
2018-08-30T03:58:00.764Z,5.17
2018-08-30T04:00:29.333Z,3.40
2018-08-30T04:02:57.789Z,3.87
2018-08-30T04:05:26.347Z,3.33
2018-08-30T04:07:54.807Z,3.63
2018-08-30T04:10:23.675Z,4.07
2018-08-30T04:12:52.112Z,3.93
2018-08-30T04:15:20.726Z,4.77
2018-08-30T04:17:49.180Z,5.13
2018-08-30T04:20:17.652Z,3.80
2018-08-30T04:22:46.113Z,4.63
2018-08-30T04:25:14.648Z,4.20
2018-08-30T04:27:43.109Z,4.67
2018-08-30T04:30:11.717Z,4.30
2018-08-30T04:32:40.156Z,4.27
2018-08-30T04:35:08.760Z,5.30
2018-08-30T04:37:37.177Z,5.43
2018-08-30T04:40:05.975Z,5.93
2018-08-30T04:42:34.402Z,5.70
2018-08-30T04:45:03.137Z,5.93
2018-08-30T04:47:31.901Z,6.57
2018-08-30T04:50:01.439Z,6.87
2018-08-30T04:52:30.903Z,7.90
2018-08-30T04:54:59.459Z,5.73
2018-08-30T04:57:27.875Z,6.17
2018-08-30T04:59:56.437Z,6.03
2018-08-30T05:02:24.827Z,5.83
2018-08-30T05:04:53.304Z,6.40
2018-08-30T05:07:22.389Z,7.87
2018-08-30T05:09:51.059Z,6.50
2018-08-30T05:12:19.688Z,6.77
2018-08-30T05:14:49.230Z,7.23
2018-08-30T05:17:17.735Z,6.23
2018-08-30T05:19:46.212Z,7.27
2018-08-30T05:22:14.760Z,5.80
2018-08-30T05:24:43.446Z,5.73
2018-08-30T05:27:11.957Z,5.80
2018-08-30T05:29:40.544Z,7.90
2018-08-30T05:32:09.186Z,8.03
2018-08-30T05:34:37.785Z,6.87
2018-08-30T05:37:06.357Z,8.87
2018-08-30T05:39:34.928Z,10.33
2018-08-30T05:42:06.140Z,9.60
2018-08-30T05:44:34.855Z,10.13
2018-08-30T05:47:03.631Z,11.33
2018-08-30T05:49:32.719Z,10.03
2018-08-30T05:52:01.734Z,11.07
2018-08-30T05:54:31.153Z,10.03
2018-08-30T05:56:59.767Z,10.57
2018-08-30T05:59:28.930Z,10.07
2018-08-30T06:01:57.360Z,9.93
2018-08-30T06:04:25.956Z,10.20
2018-08-30T06:06:54.442Z,10.13
2018-08-30T06:09:23.039Z,8.90
2018-08-30T06:11:51.495Z,8.73
2018-08-30T06:14:20.000Z,9.33
2018-08-30T06:16:48.448Z,9.47
2018-08-30T06:19:16.990Z,9.53
2018-08-30T06:21:45.489Z,10.47
2018-08-30T06:24:14.143Z,10.77
2018-08-30T06:26:42.626Z,8.80
2018-08-30T06:29:11.531Z,8.10
2018-08-30T06:31:40.025Z,9.03
2018-08-30T06:34:08.650Z,9.80
2018-08-30T06:36:37.345Z,8.47
2018-08-30T06:39:07.566Z,8.67
2018-08-30T06:41:36.234Z,6.37
2018-08-30T06:44:04.910Z,8.80
2018-08-30T06:46:33.390Z,8.37
2018-08-30T06:49:02.670Z,8.23
2018-08-30T06:51:31.306Z,7.93
2018-08-30T06:54:00.231Z,7.83
2018-08-30T06:56:28.803Z,8.43
2018-08-30T06:58:57.465Z,9.97
2018-08-30T07:01:26.110Z,8.70
2018-08-30T07:03:57.460Z,12.43
2018-08-30T07:06:25.939Z,8.20
2018-08-30T07:08:54.521Z,8.70
2018-08-30T07:11:22.991Z,8.47
2018-08-30T07:13:51.455Z,8.20
2018-08-30T07:16:20.006Z,8.80
2018-08-30T07:18:48.490Z,8.87
2018-08-30T07:21:16.969Z,9.77
2018-08-30T07:23:46.524Z,7.90
2018-08-30T07:26:14.886Z,7.40
2018-08-30T07:28:43.762Z,6.77
2018-08-30T07:31:12.297Z,8.00
2018-08-30T07:33:40.741Z,8.27
2018-08-30T07:36:09.242Z,7.87
2018-08-30T07:38:37.889Z,10.33
2018-08-30T07:41:06.645Z,6.93
2018-08-30T07:43:35.327Z,6.10
2018-08-30T07:46:04.237Z,7.77
2018-08-30T07:48:34.124Z,5.00
2018-08-30T07:51:03.238Z,6.03
2018-08-30T07:53:32.062Z,6.93
2018-08-30T07:56:00.508Z,6.80
2018-08-30T07:58:29.017Z,6.67
2018-08-30T08:00:57.426Z,5.87
2018-08-30T08:03:25.997Z,6.97
2018-08-30T08:05:54.571Z,6.23
2018-08-30T08:08:23.454Z,6.27
2018-08-30T08:10:51.842Z,7.70
2018-08-30T08:13:20.393Z,7.97
2018-08-30T08:15:48.836Z,8.17
2018-08-30T08:18:17.462Z,8.70
2018-08-30T08:20:45.869Z,9.00
2018-08-30T08:23:14.434Z,8.70
2018-08-30T08:25:42.837Z,8.77
2018-08-30T08:28:11.571Z,8.53
2018-08-30T08:30:39.965Z,9.67
2018-08-30T08:33:08.600Z,10.53
2018-08-30T08:35:37.006Z,12.33
2018-08-30T08:38:05.641Z,9.93
2018-08-30T08:40:34.123Z,12.03
2018-08-30T08:43:02.688Z,11.13
2018-08-30T08:45:31.480Z,13.00
2018-08-30T08:48:00.177Z,11.37
2018-08-30T08:50:28.786Z,11.63
2018-08-30T08:52:57.339Z,11.47
2018-08-30T08:55:25.803Z,10.03
2018-08-30T08:57:54.428Z,11.50
2018-08-30T09:00:22.987Z,11.37
2018-08-30T09:02:51.698Z,10.10
2018-08-30T09:05:20.172Z,9.73
2018-08-30T09:07:48.935Z,11.73
2018-08-30T09:10:17.363Z,10.53
2018-08-30T09:12:45.961Z,8.10
2018-08-30T09:15:14.470Z,7.83
2018-08-30T09:17:43.055Z,8.70
2018-08-30T09:20:11.576Z,8.97
2018-08-30T09:22:40.114Z,9.03
2018-08-30T09:25:08.567Z,7.50
2018-08-30T09:27:37.069Z,7.07
2018-08-30T09:30:05.539Z,6.50
2018-08-30T09:32:34.111Z,7.10
2018-08-30T09:35:02.553Z,10.57
2018-08-30T09:37:31.187Z,7.93
2018-08-30T09:40:00.087Z,6.97
2018-08-30T09:42:29.213Z,5.87
2018-08-30T09:44:58.118Z,7.23
2018-08-30T09:47:26.556Z,6.87
2018-08-30T09:49:55.048Z,8.90
2018-08-30T09:52:23.710Z,7.73
2018-08-30T09:54:52.180Z,8.87
2018-08-30T09:57:20.954Z,9.37
2018-08-30T09:59:49.350Z,7.23
2018-08-30T10:02:23.164Z,7.73
2018-08-30T10:04:51.598Z,8.50
2018-08-30T10:07:20.126Z,8.23
2018-08-30T10:09:48.597Z,6.73
2018-08-30T10:12:17.147Z,7.03
2018-08-30T10:14:45.620Z,6.00
2018-08-30T10:17:14.188Z,7.33
2018-08-30T10:19:42.650Z,6.17
2018-08-30T10:22:11.288Z,7.83
2018-08-30T10:24:39.670Z,6.53
2018-08-30T10:27:08.144Z,5.60
2018-08-30T10:29:36.580Z,5.20
2018-08-30T10:32:05.641Z,5.23
2018-08-30T10:34:34.405Z,5.70
2018-08-30T10:37:02.922Z,6.97
2018-08-30T10:39:31.526Z,6.47
2018-08-30T10:42:00.031Z,8.90
2018-08-30T10:44:29.288Z,7.00
2018-08-30T10:46:57.810Z,7.50
2018-08-30T10:49:26.297Z,7.70
2018-08-30T10:51:54.922Z,7.27
2018-08-30T10:54:23.333Z,6.07
2018-08-30T10:56:51.815Z,7.97
2018-08-30T10:59:20.395Z,6.97
2018-08-30T11:01:48.990Z,7.03
2018-08-30T11:04:17.534Z,7.23
2018-08-30T11:06:46.594Z,6.87
2018-08-30T11:09:15.094Z,7.33
2018-08-30T11:11:43.732Z,9.83
2018-08-30T11:14:12.187Z,7.13
2018-08-30T11:16:40.752Z,7.40
2018-08-30T11:19:09.216Z,8.10
2018-08-30T11:21:37.658Z,8.17
2018-08-30T11:24:06.099Z,8.73
2018-08-30T11:26:34.610Z,7.30
2018-08-30T11:29:03.329Z,7.73
2018-08-30T11:31:32.637Z,8.33
2018-08-30T11:34:01.173Z,7.50
2018-08-30T11:36:29.673Z,7.00
2018-08-30T11:38:58.209Z,9.83
2018-08-30T11:41:26.835Z,6.80
2018-08-30T11:43:55.528Z,6.73
2018-08-30T11:46:24.248Z,8.77
2018-08-30T11:48:52.790Z,6.67
2018-08-30T11:51:21.448Z,8.00
2018-08-30T11:53:49.926Z,7.97
2018-08-30T11:56:18.530Z,7.60
2018-08-30T11:58:47.160Z,7.80
2018-08-30T12:01:15.699Z,7.80
2018-08-30T12:03:45.123Z,8.50
2018-08-30T12:06:13.749Z,8.33
2018-08-30T12:08:42.227Z,9.67
2018-08-30T12:11:11.151Z,7.97
2018-08-30T12:13:39.718Z,8.27
2018-08-30T12:16:08.250Z,10.83
2018-08-30T12:18:36.775Z,10.57
2018-08-30T12:21:05.914Z,9.03
2018-08-30T12:23:34.798Z,9.47
2018-08-30T12:26:03.454Z,8.53
2018-08-30T12:28:32.502Z,7.40
2018-08-30T12:31:02.251Z,10.10
2018-08-30T12:33:31.297Z,10.87
2018-08-30T12:36:00.099Z,9.90
2018-08-30T12:45:27.591Z,9.37
2018-08-30T12:47:56.223Z,9.00
2018-08-30T12:50:25.588Z,8.50
2018-08-30T12:52:54.233Z,10.17
2018-08-30T12:55:23.065Z,9.83
2018-08-30T12:57:51.635Z,11.40
2018-08-30T13:00:20.509Z,9.13
2018-08-30T13:02:49.199Z,10.43
2018-08-30T13:05:18.102Z,10.17
2018-08-30T13:07:46.734Z,8.77
2018-08-30T13:10:15.606Z,8.40
2018-08-30T13:12:44.368Z,12.17
2018-08-30T13:15:13.183Z,9.93
2018-08-30T13:17:41.695Z,9.83
2018-08-30T13:20:10.474Z,8.27
2018-08-30T13:22:39.499Z,9.67
2018-08-30T13:25:08.174Z,10.10
2018-08-30T13:27:36.658Z,9.37
2018-08-30T13:30:06.786Z,10.23
2018-08-30T13:32:35.364Z,10.47
2018-08-30T13:35:04.507Z,7.17
2018-08-30T13:37:33.984Z,10.17
2018-08-30T13:40:03.450Z,9.40
2018-08-30T13:42:32.273Z,9.93
2018-08-30T13:45:02.075Z,7.83
2018-08-30T13:47:30.820Z,10.27
2018-08-30T13:49:59.462Z,9.83
2018-08-30T13:52:28.071Z,8.23
2018-08-30T13:54:56.945Z,7.40
2018-08-30T13:57:25.755Z,10.33
2018-08-30T13:59:54.648Z,9.13
2018-08-30T14:02:23.133Z,8.97
2018-08-30T14:04:52.171Z,9.37
2018-08-30T14:07:20.822Z,9.13
2018-08-30T14:09:49.449Z,8.53
2018-08-30T14:12:18.263Z,8.60
2018-08-30T14:14:47.095Z,9.87
2018-08-30T14:17:15.326Z,9.03
2018-08-30T14:19:43.717Z,8.63
2018-08-30T14:22:12.280Z,8.97
2018-08-30T14:24:40.986Z,9.00
2018-08-30T14:27:09.649Z,10.03
2018-08-30T14:29:38.103Z,7.37
2018-08-30T14:32:07.350Z,8.73
2018-08-30T14:34:35.977Z,8.30
2018-08-30T14:37:04.502Z,7.63
2018-08-30T14:39:33.942Z,8.43
2018-08-30T14:42:03.251Z,9.33
2018-08-30T14:44:32.239Z,8.50
2018-08-30T14:47:01.370Z,8.70
2018-08-30T14:49:30.841Z,8.03
2018-08-30T14:51:59.418Z,10.43
2018-08-30T14:54:28.094Z,8.97
2018-08-30T14:56:56.634Z,8.63
2018-08-30T14:59:25.131Z,9.20
2018-08-30T15:01:53.661Z,9.73
2018-08-30T15:04:22.135Z,8.90
2018-08-30T15:06:50.654Z,9.17
2018-08-30T15:09:19.374Z,11.50
2018-08-30T15:11:47.848Z,8.90
2018-08-30T15:14:16.397Z,9.17
2018-08-30T15:16:44.770Z,10.60
2018-08-30T15:19:14.361Z,8.93
2018-08-30T15:21:43.018Z,10.30
2018-08-30T15:24:11.522Z,10.90
2018-08-30T15:26:39.969Z,10.50
2018-08-30T15:29:08.538Z,10.03
2018-08-30T15:31:37.215Z,8.27
2018-08-30T15:34:06.125Z,10.37
2018-08-30T15:37:06.039Z,11.17
2018-08-30T15:39:34.545Z,9.17
2018-08-30T15:42:04.235Z,10.30
2018-08-30T15:44:33.608Z,10.67
2018-08-30T15:47:02.480Z,10.27
2018-08-30T15:49:31.347Z,9.73
2018-08-30T15:52:01.508Z,9.80
2018-08-30T15:54:30.075Z,11.03
2018-08-30T15:56:58.731Z,10.93
2018-08-30T15:59:27.495Z,9.23
2018-08-30T16:01:56.130Z,9.17
2018-08-30T16:04:24.574Z,9.53
2018-08-30T16:06:53.148Z,11.50
2018-08-30T16:09:21.731Z,10.47
2018-08-30T16:11:51.377Z,8.67
2018-08-30T16:14:19.976Z,8.87
2018-08-30T16:16:48.382Z,9.97
2018-08-30T16:19:16.809Z,8.70
2018-08-30T16:21:45.278Z,8.53
2018-08-30T16:24:13.992Z,10.00
2018-08-30T16:26:42.713Z,9.47
2018-08-30T16:29:11.223Z,10.13
2018-08-30T16:31:39.932Z,10.87
2018-08-30T16:34:08.568Z,9.20
2018-08-30T16:42:23.913Z,8.43
2018-08-30T16:44:52.335Z,9.47
2018-08-30T16:47:20.989Z,11.50
2018-08-30T16:49:49.459Z,10.13
2018-08-30T16:52:18.054Z,11.23
2018-08-30T16:54:46.638Z,9.07
2018-08-30T16:57:15.247Z,7.83
2018-08-30T16:59:43.663Z,7.60
2018-08-30T17:02:13.223Z,8.73
2018-08-30T17:04:41.771Z,8.53
2018-08-30T17:07:10.371Z,10.70
2018-08-30T17:09:39.013Z,10.20
2018-08-30T17:12:07.722Z,8.17
2018-08-30T17:14:36.287Z,8.23
2018-08-30T17:17:05.254Z,8.40
2018-08-30T17:19:33.844Z,7.53
2018-08-30T17:22:03.026Z,7.80
2018-08-30T17:24:32.180Z,10.53
2018-08-30T17:27:01.256Z,9.13
2018-08-30T17:30:01.467Z,9.63
2018-08-30T17:32:29.969Z,8.50
2018-08-30T17:34:58.704Z,8.20
2018-08-30T17:37:27.071Z,8.07
2018-08-30T17:39:55.908Z,9.60
2018-08-30T17:42:24.534Z,8.63
2018-08-30T17:44:53.342Z,9.73
2018-08-30T17:47:21.771Z,8.47
2018-08-30T17:49:50.539Z,9.40
2018-08-30T17:52:19.039Z,8.97
2018-08-30T17:54:47.639Z,9.07
2018-08-30T17:57:16.092Z,9.20
2018-08-30T17:59:44.814Z,9.00
2018-08-30T18:02:13.324Z,8.73
2018-08-30T18:04:41.934Z,9.60
2018-08-30T18:07:10.486Z,8.93
2018-08-30T18:09:39.224Z,9.27
2018-08-30T18:12:07.952Z,9.77
2018-08-30T18:14:36.570Z,8.63
2018-08-30T18:17:05.398Z,11.10
2018-08-30T18:19:33.953Z,10.10
2018-08-30T18:22:03.036Z,9.73
2018-08-30T18:24:32.576Z,10.43
2018-08-30T18:27:01.867Z,10.37
2018-08-30T18:29:30.763Z,10.37
2018-08-30T18:31:59.159Z,10.80
2018-08-30T18:34:27.671Z,9.67
2018-08-30T18:36:56.172Z,10.40
2018-08-30T18:39:24.661Z,12.20
2018-08-30T18:41:53.085Z,11.40
2018-08-30T18:44:33.778Z,9.90
2018-08-30T18:47:03.354Z,11.13
2018-08-30T18:49:31.977Z,11.63
2018-08-30T18:52:00.521Z,11.07
2018-08-30T18:54:29.049Z,11.97
2018-08-30T18:56:57.575Z,10.47
2018-08-30T18:59:26.074Z,9.10
2018-08-30T19:01:54.744Z,10.20
2018-08-30T19:04:24.069Z,11.33
2018-08-30T19:06:52.631Z,10.23
2018-08-30T19:09:21.030Z,10.33
2018-08-30T19:11:49.485Z,12.93
2018-08-30T19:14:17.966Z,11.57
2018-08-30T19:16:52.878Z,10.83
2018-08-30T19:19:24.219Z,11.47
2018-08-30T19:21:53.057Z,11.93
2018-08-30T19:24:26.880Z,10.93
2018-08-30T19:26:55.323Z,10.07
2018-08-30T19:29:24.103Z,10.43
2018-08-30T19:31:52.665Z,12.47
2018-08-30T19:34:21.108Z,12.37
2018-08-30T19:36:49.504Z,10.87
2018-08-30T19:39:17.995Z,10.53
2018-08-30T19:41:46.428Z,11.17
2018-08-30T19:44:15.006Z,12.07
2018-08-30T19:46:43.464Z,12.40
2018-08-30T19:49:11.973Z,12.90
2018-08-30T19:51:40.411Z,13.10
2018-08-30T19:54:08.852Z,12.07
2018-08-30T19:56:37.388Z,11.93
2018-08-30T19:59:05.939Z,11.03
2018-08-30T20:01:34.445Z,10.67
2018-08-30T20:04:03.031Z,11.20
2018-08-30T20:06:31.454Z,10.77
2018-08-30T20:09:00.081Z,11.77
2018-08-30T20:11:28.534Z,11.87
2018-08-30T20:13:57.183Z,11.80
2018-08-30T20:16:25.583Z,11.13
2018-08-30T20:18:54.051Z,13.27
2018-08-30T20:21:22.503Z,12.60
2018-08-30T20:23:51.145Z,13.80
2018-08-30T20:26:19.714Z,13.33
2018-08-30T20:28:48.187Z,12.23
2018-08-30T20:31:16.585Z,14.57
2018-08-30T20:33:44.970Z,12.77
2018-08-30T20:36:13.433Z,12.47
2018-08-30T20:38:41.885Z,10.93
2018-08-30T20:41:10.369Z,12.07
2018-08-30T20:43:39.009Z,12.40
2018-08-30T20:46:07.487Z,13.00
2018-08-30T20:48:36.029Z,11.80
2018-08-30T20:51:05.093Z,14.63
2018-08-30T20:53:34.318Z,12.20
2018-08-30T20:56:03.354Z,12.13
2018-08-30T20:58:31.790Z,13.07
2018-08-30T21:01:00.267Z,12.67
2018-08-30T21:03:28.719Z,11.30
2018-08-30T21:05:57.174Z,12.97
2018-08-30T21:08:25.602Z,12.20
2018-08-30T21:10:54.234Z,14.73
2018-08-30T21:13:22.664Z,14.07
2018-08-30T21:15:51.159Z,12.00
2018-08-30T21:18:19.631Z,11.90
2018-08-30T21:20:48.089Z,16.97
2018-08-30T21:23:16.651Z,15.90
2018-08-30T21:25:45.225Z,14.43
2018-08-30T21:28:13.615Z,13.60
2018-08-30T21:30:42.103Z,16.80
2018-08-30T21:33:10.541Z,14.87
2018-08-30T21:35:39.131Z,16.23
2018-08-30T21:38:07.619Z,13.33
2018-08-30T21:40:36.055Z,17.23
2018-08-30T21:43:05.285Z,15.27
2018-08-30T21:45:34.488Z,14.70
2018-08-30T21:48:03.326Z,15.13
2018-08-30T21:50:31.808Z,14.60
2018-08-30T21:53:00.245Z,15.23
2018-08-30T21:55:28.832Z,15.73
2018-08-30T21:57:57.383Z,14.80
2018-08-30T22:00:27.198Z,17.23
2018-08-30T22:02:56.029Z,14.17
2018-08-30T22:05:25.258Z,15.23
2018-08-30T22:07:53.813Z,16.53
2018-08-30T22:10:22.382Z,12.87
2018-08-30T22:12:50.840Z,14.57
2018-08-30T22:15:19.842Z,15.87
2018-08-30T22:17:48.252Z,17.77
2018-08-30T22:20:16.896Z,15.13
2018-08-30T22:22:45.384Z,13.90
2018-08-30T22:25:14.389Z,15.17
2018-08-30T22:27:42.790Z,15.67
2018-08-30T22:30:11.591Z,15.20
2018-08-30T22:32:40.241Z,15.80
2018-08-30T22:35:08.942Z,15.27
2018-08-30T22:37:37.508Z,14.10
2018-08-30T22:57:34.442Z,14.90
2018-08-30T23:00:03.166Z,14.70
2018-08-30T23:02:31.753Z,16.53
2018-08-30T23:05:00.276Z,15.73
2018-08-30T23:07:28.880Z,15.00
2018-08-30T23:09:57.286Z,14.27
2018-08-30T23:12:26.746Z,13.90
2018-08-30T23:14:55.210Z,13.17
2018-08-30T23:17:23.882Z,16.13
2018-08-30T23:19:52.372Z,15.10
2018-08-30T23:22:20.911Z,16.27
2018-08-30T23:24:49.685Z,15.63
2018-08-30T23:27:18.215Z,16.20
2018-08-30T23:29:46.616Z,15.87
2018-08-30T23:32:16.143Z,17.43
2018-08-30T23:34:44.566Z,16.80
2018-08-30T23:37:13.507Z,14.63
2018-08-30T23:39:41.882Z,14.90
2018-08-30T23:42:10.541Z,14.87
2018-08-30T23:44:38.899Z,15.57
2018-08-30T23:47:07.555Z,14.07
2018-08-30T23:49:35.963Z,14.57
2018-08-30T23:52:05.499Z,16.13
2018-08-30T23:54:34.535Z,16.33
2018-08-30T23:57:03.518Z,15.97
2018-08-30T23:59:43.428Z,15.87
